Time;durP1;ratioP1;P1;durP2;ratioP2;P2;SDS_P1;SDS_P2;PMS_P1;PMS_P2;Temp;Humidity;BMP_temperature;BMP_pressure;BME280_temperature;BME280_humidity;BME280_pressure;Samples;Min_cycle;Max_cycle;Signal;HPM_P1;HPM_P2
2023/07/17 00:00:22;;;;;;;4.80;2.50;;;18.90;15.80;;;;;;4995629;28;20415;-68
2023/07/17 00:02:48;;;;;;;4.10;3.17;;;18.90;15.10;;;;;;4995233;28;20196;-68
2023/07/17 00:05:13;;;;;;;4.87;2.70;;;18.90;14.90;;;;;;4995854;28;20519;-67
2023/07/17 00:07:39;;;;;;;3.93;2.70;;;18.90;15.10;;;;;;4995891;28;20208;-68
2023/07/17 00:10:07;;;;;;;3.00;2.17;;;18.80;15.70;;;;;;4995734;28;20176;-68
2023/07/17 00:12:32;;;;;;;10.80;3.10;;;18.80;15.80;;;;;;4996599;28;20443;-67
2023/07/17 00:14:58;;;;;;;3.80;2.53;;;18.70;15.60;;;;;;4996174;28;20465;-68
2023/07/17 00:17:24;;;;;;;6.17;2.37;;;18.70;15.90;;;;;;4996071;28;20181;-67
2023/07/17 00:19:56;;;;;;;4.03;2.83;;;18.60;16.60;;;;;;4996537;28;20185;-68
2023/07/17 00:22:23;;;;;;;4.13;3.30;;;18.60;17.20;;;;;;4994709;28;20642;-68
2023/07/17 00:24:52;;;;;;;5.53;2.43;;;18.50;16.60;;;;;;4995860;28;20904;-68
2023/07/17 00:27:19;;;;;;;3.73;2.60;;;18.50;16.00;;;;;;4996371;28;21003;-68
2023/07/17 00:29:44;;;;;;;4.83;3.00;;;18.50;15.50;;;;;;4996263;28;20849;-67
2023/07/17 00:32:14;;;;;;;4.70;3.23;;;18.40;15.70;;;;;;4995259;28;20407;-67
2023/07/17 00:34:40;;;;;;;5.73;3.40;;;18.40;16.10;;;;;;4995016;28;20243;-68
2023/07/17 00:37:07;;;;;;;5.10;2.67;;;18.30;16.90;;;;;;4995761;28;20416;-68
2023/07/17 00:39:33;;;;;;;4.20;2.63;;;18.30;16.50;;;;;;4994727;28;20934;-68
2023/07/17 00:41:59;;;;;;;4.13;3.27;;;18.30;17.30;;;;;;4995408;28;20458;-68
2023/07/17 00:44:24;;;;;;;7.03;3.10;;;18.40;16.90;;;;;;4994297;28;20200;-68
2023/07/17 00:46:52;;;;;;;6.97;3.37;;;18.40;16.50;;;;;;4994773;28;20180;-68
2023/07/17 00:49:19;;;;;;;3.73;2.00;;;18.50;16.30;;;;;;4995280;28;20169;-67
2023/07/17 00:51:45;;;;;;;7.20;3.27;;;18.50;16.50;;;;;;4994770;28;20459;-68
2023/07/17 00:54:14;;;;;;;4.73;2.67;;;18.50;16.80;;;;;;4995201;28;20440;-68
2023/07/17 00:56:41;;;;;;;3.40;2.93;;;18.60;15.90;;;;;;4994690;28;20458;-67
2023/07/17 00:59:07;;;;;;;4.03;2.90;;;18.50;15.70;;;;;;4994874;28;20917;-67
2023/07/17 01:01:33;;;;;;;5.23;3.40;;;18.50;16.20;;;;;;4995414;28;20416;-67
2023/07/17 01:04:01;;;;;;;5.90;2.90;;;18.40;16.80;;;;;;4995441;28;20212;-67
2023/07/17 01:06:27;;;;;;;4.43;2.97;;;18.40;17.50;;;;;;4994581;28;20482;-68
2023/07/17 01:08:52;;;;;;;5.03;3.07;;;18.30;17.20;;;;;;4994894;28;20909;-67
2023/07/17 01:11:18;;;;;;;6.17;3.07;;;18.40;16.40;;;;;;4994649;28;20419;-68
2023/07/17 01:13:48;;;;;;;3.50;2.33;;;18.40;15.80;;;;;;4993994;28;20715;-67
2023/07/17 01:16:14;;;;;;;6.73;3.40;;;18.40;15.40;;;;;;4994868;28;20188;-68
2023/07/17 01:18:40;;;;;;;3.73;2.60;;;18.40;15.40;;;;;;4994931;28;20894;-67
2023/07/17 01:21:08;;;;;;;4.13;2.53;;;18.40;15.40;;;;;;4994723;28;20176;-68
2023/07/17 01:23:35;;;;;;;3.40;2.43;;;18.40;15.10;;;;;;4993633;28;20464;-68
2023/07/17 01:26:01;;;;;;;5.30;2.53;;;18.50;14.90;;;;;;4994401;28;20459;-67
2023/07/17 01:28:27;;;;;;;3.73;2.03;;;18.50;15.50;;;;;;4993895;28;20408;-67
2023/07/17 01:30:52;;;;;;;6.13;3.03;;;18.50;15.50;;;;;;4994293;28;20963;-68
2023/07/17 01:33:18;;;;;;;3.30;2.70;;;18.40;15.40;;;;;;4993630;28;20527;-68
2023/07/17 01:35:45;;;;;;;6.03;2.90;;;18.40;15.40;;;;;;4993702;28;20215;-68
2023/07/17 01:38:10;;;;;;;4.07;3.17;;;18.30;15.40;;;;;;4993923;28;20173;-68
2023/07/17 01:40:36;;;;;;;4.00;2.80;;;18.30;15.40;;;;;;4994227;28;20435;-68
2023/07/17 01:43:01;;;;;;;3.53;2.50;;;18.40;15.40;;;;;;4993406;28;20200;-68
2023/07/17 01:45:27;;;;;;;5.30;3.07;;;18.40;15.40;;;;;;4994727;28;20204;-68
2023/07/17 01:47:53;;;;;;;4.60;3.10;;;18.40;15.40;;;;;;4993721;28;20172;-68
2023/07/17 01:50:18;;;;;;;4.00;2.50;;;18.50;15.20;;;;;;4994062;28;20180;-68
2023/07/17 01:52:44;;;;;;;4.53;2.87;;;18.50;14.90;;;;;;4993770;28;20593;-68
2023/07/17 01:55:09;;;;;;;3.67;2.60;;;18.60;14.90;;;;;;4994122;28;20235;-68
2023/07/17 01:57:35;;;;;;;4.70;2.43;;;18.50;15.50;;;;;;4993720;28;20191;-68
2023/07/17 02:00:00;;;;;;;5.17;2.80;;;18.60;15.60;;;;;;4993578;28;20251;-68
2023/07/17 02:02:26;;;;;;;3.73;2.50;;;18.60;15.60;;;;;;4993304;28;20177;-68
2023/07/17 02:04:52;;;;;;;3.97;2.73;;;18.60;15.00;;;;;;4993368;28;20204;-68
2023/07/17 02:07:17;;;;;;;3.43;2.67;;;18.60;14.70;;;;;;4993680;28;20173;-68
2023/07/17 02:09:43;;;;;;;5.90;3.43;;;18.60;14.20;;;;;;4993540;28;20172;-68
2023/07/17 02:12:09;;;;;;;5.00;3.33;;;18.70;13.80;;;;;;4993826;28;20654;-68
2023/07/17 02:14:34;;;;;;;5.60;2.90;;;18.60;13.00;;;;;;4994202;28;20183;-69
2023/07/17 02:17:00;;;;;;;4.13;3.10;;;18.60;12.60;;;;;;4993603;28;20784;-68
2023/07/17 02:19:26;;;;;;;4.40;2.93;;;18.60;12.40;;;;;;4993448;28;20176;-68
2023/07/17 02:21:52;;;;;;;9.13;2.43;;;18.80;12.20;;;;;;4993560;28;20204;-68
2023/07/17 02:24:17;;;;;;;6.50;2.90;;;18.80;12.70;;;;;;4993111;28;20844;-68
2023/07/17 02:26:43;;;;;;;3.63;3.00;;;18.80;12.40;;;;;;4993856;28;20208;-68
2023/07/17 02:29:09;;;;;;;4.40;3.23;;;18.80;12.10;;;;;;4993787;28;20639;-68
2023/07/17 02:31:34;;;;;;;5.10;2.50;;;18.80;12.70;;;;;;4993475;28;20537;-68
2023/07/17 02:34:00;;;;;;;4.67;2.63;;;18.80;13.50;;;;;;4993486;28;20562;-68
2023/07/17 02:36:25;;;;;;;4.00;3.00;;;18.80;14.60;;;;;;4993104;28;20181;-68
2023/07/17 02:38:51;;;;;;;4.57;2.17;;;18.80;14.80;;;;;;4992894;28;20195;-68
2023/07/17 02:41:16;;;;;;;3.40;2.60;;;18.70;15.60;;;;;;4992850;28;20239;-68
2023/07/17 02:43:42;;;;;;;6.20;3.00;;;18.70;14.60;;;;;;4992622;28;20200;-68
2023/07/17 02:46:07;;;;;;;4.97;2.20;;;18.70;15.00;;;;;;4994273;28;20282;-68
2023/07/17 02:48:33;;;;;;;3.03;1.80;;;18.70;15.30;;;;;;4997131;28;20647;-68
2023/07/17 02:50:58;;;;;;;5.00;2.73;;;18.50;15.50;;;;;;4996816;28;20597;-68
2023/07/17 02:53:25;;;;;;;3.10;2.17;;;18.50;15.50;;;;;;4996757;28;20716;-67
2023/07/17 02:55:51;;;;;;;4.63;2.70;;;18.50;15.50;;;;;;4996735;28;20180;-68
2023/07/17 02:58:17;;;;;;;5.20;2.10;;;18.50;15.50;;;;;;4996970;28;20416;-68
2023/07/17 03:00:43;;;;;;;2.90;2.13;;;18.40;15.40;;;;;;4996996;28;20177;-68
2023/07/17 03:03:09;;;;;;;4.40;2.90;;;18.40;15.40;;;;;;4996300;28;20439;-69
2023/07/17 03:05:35;;;;;;;4.20;1.97;;;18.40;15.50;;;;;;4996597;28;20529;-68
2023/07/17 03:08:01;;;;;;;4.57;2.93;;;18.40;15.90;;;;;;4996687;28;20563;-68
2023/07/17 03:10:27;;;;;;;3.57;2.63;;;18.50;15.50;;;;;;4995386;28;20423;-68
2023/07/17 03:12:52;;;;;;;3.47;2.33;;;18.40;15.40;;;;;;4996175;28;20553;-68
2023/07/17 03:15:18;;;;;;;5.13;2.83;;;18.40;15.80;;;;;;4995353;28;20427;-68
2023/07/17 03:17:44;;;;;;;4.30;2.53;;;18.40;15.40;;;;;;4996672;28;20643;-68
2023/07/17 03:20:10;;;;;;;3.20;2.20;;;18.40;15.40;;;;;;4996388;28;20180;-69
2023/07/17 03:22:36;;;;;;;4.40;2.00;;;18.40;16.20;;;;;;4996087;28;20200;-69
2023/07/17 03:25:04;;;;;;;4.57;2.73;;;18.40;15.50;;;;;;4995997;28;20936;-68
2023/07/17 03:27:30;;;;;;;3.97;2.80;;;18.40;15.40;;;;;;4996144;28;20422;-68
2023/07/17 03:29:56;;;;;;;3.93;2.47;;;18.40;15.40;;;;;;4996329;28;20407;-69
2023/07/17 03:32:21;;;;;;;3.53;2.83;;;18.40;15.40;;;;;;4995947;28;20260;-69
2023/07/17 03:34:47;;;;;;;4.17;2.70;;;18.40;15.40;;;;;;4996183;28;20176;-69
2023/07/17 03:37:13;;;;;;;3.10;2.73;;;18.50;15.50;;;;;;4996312;28;20181;-69
2023/07/17 03:39:38;;;;;;;6.20;3.00;;;18.50;15.50;;;;;;4996351;28;20173;-74
2023/07/17 03:42:10;;;;;;;5.20;2.20;;;18.50;15.50;;;;;;4996088;28;20183;-69
2023/07/17 03:44:38;;;;;;;5.03;2.53;;;18.50;15.70;;;;;;4995999;28;20181;-69
2023/07/17 03:47:08;;;;;;;6.30;2.10;;;18.40;16.00;;;;;;4995623;28;20412;-70
2023/07/17 03:49:34;;;;;;;3.67;2.10;;;18.40;15.70;;;;;;4995686;28;20411;-69
2023/07/17 03:52:00;;;;;;;3.83;2.27;;;18.40;16.10;;;;;;4995528;28;20423;-69
2023/07/17 03:54:25;;;;;;;3.67;2.77;;;18.40;16.50;;;;;;4995730;28;20431;-69
2023/07/17 03:56:51;;;;;;;4.60;2.23;;;18.40;15.80;;;;;;4995469;28;20213;-69
2023/07/17 03:59:22;;;;;;;8.67;3.07;;;18.30;15.40;;;;;;4996088;28;20223;-66
2023/07/17 04:01:48;;;;;;;3.80;2.40;;;18.30;16.10;;;;;;4995826;28;20686;-68
2023/07/17 04:04:14;;;;;;;4.50;2.77;;;18.30;16.10;;;;;;4995726;28;20452;-68
2023/07/17 04:06:39;;;;;;;6.40;2.43;;;18.30;16.90;;;;;;4995652;28;20240;-67
2023/07/17 04:09:05;;;;;;;4.40;2.83;;;18.30;16.60;;;;;;4995675;28;20524;-68
2023/07/17 04:11:30;;;;;;;4.37;2.50;;;18.20;16.80;;;;;;4994460;28;20530;-71
2023/07/17 04:13:56;;;;;;;4.30;2.97;;;18.20;17.60;;;;;;4995365;28;20216;-67
2023/07/17 04:16:25;;;;;;;3.87;3.10;;;18.20;17.90;;;;;;4995588;28;20526;-68
2023/07/17 04:18:50;;;;;;;4.40;2.60;;;18.20;18.00;;;;;;4995596;28;20231;-67
2023/07/17 04:21:16;;;;;;;3.87;3.00;;;18.20;18.70;;;;;;4995087;28;20419;-66
2023/07/17 04:23:41;;;;;;;4.27;2.67;;;18.10;18.60;;;;;;4995374;28;20210;-67
2023/07/17 04:26:07;;;;;;;4.27;2.70;;;18.20;18.50;;;;;;4995379;28;20208;-68
2023/07/17 04:28:33;;;;;;;3.27;2.33;;;18.20;18.20;;;;;;4994807;28;20184;-67
2023/07/17 04:31:02;;;;;;;3.30;2.63;;;18.30;17.90;;;;;;4995064;28;20246;-68
2023/07/17 04:33:28;;;;;;;5.70;3.10;;;18.30;18.00;;;;;;4994750;28;20196;-67
2023/07/17 04:35:56;;;;;;;8.00;3.47;;;18.30;18.10;;;;;;4995029;28;20554;-67
2023/07/17 04:38:21;;;;;;;8.60;2.50;;;18.40;18.30;;;;;;4994969;28;20184;-70
2023/07/17 04:40:47;;;;;;;4.50;2.73;;;18.30;17.80;;;;;;4994635;28;20965;-68
2023/07/17 04:43:13;;;;;;;3.87;2.60;;;18.30;18.30;;;;;;4994359;28;20196;-70
2023/07/17 04:45:42;;;;;;;4.27;2.87;;;18.40;17.80;;;;;;4994680;28;20283;-70
2023/07/17 04:48:07;;;;;;;3.63;2.47;;;18.50;17.10;;;;;;4995055;28;20169;-69
2023/07/17 04:50:33;;;;;;;7.77;4.90;;;18.60;17.10;;;;;;4994928;28;20826;-69
2023/07/17 04:52:59;;;;;;;5.00;3.20;;;18.70;16.80;;;;;;4994304;28;20279;-70
2023/07/17 04:55:24;;;;;;;6.47;3.77;;;18.80;15.70;;;;;;4994540;28;20173;-69
2023/07/17 04:57:50;;;;;;;3.70;2.70;;;18.90;15.80;;;;;;4994459;28;20251;-70
2023/07/17 05:00:16;;;;;;;4.27;2.70;;;19.10;15.30;;;;;;4994440;28;20238;-70
2023/07/17 05:02:42;;;;;;;4.93;3.10;;;19.20;14.50;;;;;;4994184;28;20196;-69
2023/07/17 05:05:08;;;;;;;5.10;3.40;;;19.30;13.90;;;;;;4994394;28;21051;-69
2023/07/17 05:07:33;;;;;;;8.70;4.30;;;19.40;13.90;;;;;;4994798;28;20418;-70
2023/07/17 05:09:59;;;;;;;4.83;2.97;;;19.40;13.40;;;;;;4992726;28;20231;-70
2023/07/17 05:12:25;;;;;;;7.70;3.57;;;19.50;13.90;;;;;;4993793;28;20165;-69
2023/07/17 05:14:50;;;;;;;7.40;3.27;;;19.70;12.50;;;;;;4993158;28;20474;-70
2023/07/17 05:17:16;;;;;;;4.80;3.00;;;19.90;12.00;;;;;;4994170;28;20720;-69
2023/07/17 05:19:42;;;;;;;5.40;3.40;;;20.10;10.50;;;;;;4994285;28;20730;-70
2023/07/17 05:22:07;;;;;;;2.93;2.23;;;20.20;10.70;;;;;;4994169;28;20187;-69
2023/07/17 05:24:33;;;;;;;7.60;2.87;;;20.50;9.00;;;;;;4994665;28;20172;-70
2023/07/17 05:26:58;;;;;;;5.33;3.37;;;20.70;8.10;;;;;;4994486;28;20654;-71
2023/07/17 05:29:24;;;;;;;5.37;3.30;;;20.80;6.90;;;;;;4993808;28;20184;-71
2023/07/17 05:31:49;;;;;;;6.53;3.50;;;21.20;6.40;;;;;;4994102;28;20196;-72
2023/07/17 05:34:15;;;;;;;6.83;3.07;;;21.30;5.60;;;;;;4994297;28;20654;-73
2023/07/17 05:36:40;;;;;;;2.60;2.37;;;21.70;5.20;;;;;;4994051;28;20176;-72
2023/07/17 05:39:06;;;;;;;5.57;2.90;;;22.40;3.50;;;;;;4993229;28;20681;-71
2023/07/17 05:41:56;;;;;;;4.23;3.00;;;22.80;1.00;;;;;;4993615;28;20184;-72
2023/07/17 05:44:21;;;;;;;6.00;3.40;;;24.20;1.00;;;;;;4993878;28;20674;-73
2023/07/17 05:46:47;;;;;;;4.30;3.60;;;27.00;1.00;;;;;;4993832;28;20494;-72
2023/07/17 05:49:13;;;;;;;4.57;4.27;;;29.20;1.00;;;;;;4994113;28;20705;-73
2023/07/17 05:51:38;;;;;;;5.37;4.87;;;31.10;1.00;;;;;;4993691;28;20630;-71
2023/07/17 05:54:04;;;;;;;5.20;4.83;;;32.60;1.00;;;;;;4994698;28;20192;-71
2023/07/17 05:56:29;;;;;;;5.87;5.37;;;33.90;1.00;;;;;;4993929;28;20181;-73
2023/07/17 05:58:55;;;;;;;5.20;4.70;;;33.90;1.00;;;;;;4993393;28;20180;-71
2023/07/17 06:01:20;;;;;;;6.10;5.60;;;35.40;1.00;;;;;;4993593;28;20638;-71
2023/07/17 06:03:46;;;;;;;5.40;4.57;;;35.40;1.00;;;;;;4993002;28;20675;-72
2023/07/17 06:06:12;;;;;;;8.50;6.23;;;36.50;1.00;;;;;;4993556;28;20243;-70
2023/07/17 06:08:37;;;;;;;5.40;4.90;;;37.60;1.00;;;;;;4993696;28;20177;-70
2023/07/17 06:11:03;;;;;;;10.03;4.80;;;38.30;1.00;;;;;;4994224;28;20176;-70
2023/07/17 06:13:28;;;;;;;5.90;5.40;;;37.90;1.00;;;;;;4993354;28;20208;-70
2023/07/17 06:15:54;;;;;;;5.80;5.40;;;38.40;1.00;;;;;;4992550;28;20176;-69
2023/07/17 06:18:19;;;;;;;7.57;5.87;;;39.20;1.00;;;;;;4992343;28;20180;-70
2023/07/17 06:20:45;;;;;;;8.03;6.37;;;38.50;1.00;;;;;;4992234;28;20263;-69
2023/07/17 06:23:10;;;;;;;5.27;4.87;;;37.40;1.00;;;;;;4991740;28;20193;-69
2023/07/17 06:25:38;;;;;;;6.93;5.97;;;36.00;1.00;;;;;;4992323;28;20693;-70
2023/07/17 06:28:04;;;;;;;5.50;5.00;;;34.10;1.00;;;;;;4992508;28;20177;-71
2023/07/17 06:30:31;;;;;;;4.40;4.10;;;33.80;1.00;;;;;;4991063;28;20495;-71
2023/07/17 06:32:57;;;;;;;6.50;5.53;;;32.70;1.00;;;;;;4992047;28;20423;-70
2023/07/17 06:35:23;;;;;;;7.93;5.50;;;32.90;1.00;;;;;;4992224;28;20787;-71
2023/07/17 06:37:49;;;;;;;4.90;4.50;;;33.00;1.00;;;;;;4992374;28;20176;-70
2023/07/17 06:40:14;;;;;;;9.63;5.43;;;32.30;1.00;;;;;;4992201;28;20179;-70
2023/07/17 06:42:40;;;;;;;5.70;5.20;;;31.30;1.00;;;;;;4990970;28;20238;-71
2023/07/17 06:45:06;;;;;;;7.67;4.33;;;30.20;1.00;;;;;;4990875;28;20575;-71
2023/07/17 06:47:32;;;;;;;6.43;4.90;;;29.90;1.00;;;;;;4992170;28;20169;-69
2023/07/17 06:49:58;;;;;;;5.30;4.73;;;29.30;1.00;;;;;;4992088;28;20893;-72
2023/07/17 06:52:24;;;;;;;9.93;5.80;;;29.20;1.00;;;;;;4990585;28;20180;-70
2023/07/17 06:54:49;;;;;;;5.50;4.40;;;30.00;1.00;;;;;;4991977;28;20173;-72
2023/07/17 06:57:15;;;;;;;5.60;5.07;;;30.10;1.00;;;;;;4992162;28;20173;-70
2023/07/17 06:59:40;;;;;;;8.83;6.90;;;32.40;1.00;;;;;;4991992;28;20176;-68
2023/07/17 07:02:06;;;;;;;5.60;5.20;;;35.20;1.00;;;;;;4992236;28;20181;-70
2023/07/17 07:04:31;;;;;;;5.17;4.77;;;35.70;1.00;;;;;;4991663;28;20195;-71
2023/07/17 07:06:57;;;;;;;6.47;5.87;;;36.50;1.00;;;;;;4991413;28;20239;-70
2023/07/17 07:09:22;;;;;;;5.27;4.73;;;37.20;1.00;;;;;;4992145;28;20177;-69
2023/07/17 07:11:48;;;;;;;4.90;4.50;;;38.20;1.00;;;;;;4991932;28;20192;-73
2023/07/17 07:14:14;;;;;;;8.37;5.20;;;37.60;1.00;;;;;;4991521;28;20220;-71
2023/07/17 07:16:39;;;;;;;6.87;4.43;;;37.20;1.00;;;;;;4991750;28;20177;-70
2023/07/17 07:19:05;;;;;;;4.70;4.33;;;38.30;1.00;;;;;;4991784;28;20180;-70
2023/07/17 07:21:31;;;;;;;5.73;5.23;;;39.20;1.00;;;;;;4991750;28;20227;-70
2023/07/17 07:23:56;;;;;;;5.27;4.33;;;39.70;1.00;;;;;;4991788;28;20431;-71
2023/07/17 07:26:28;;;;;;;5.07;4.67;;;38.90;1.00;;;;;;4992764;28;20287;-71
2023/07/17 07:28:56;;;;;;;11.17;6.07;;;39.40;1.00;;;;;;4990774;28;20225;-70
2023/07/17 07:31:22;;;;;;;6.00;5.40;;;38.90;1.00;;;;;;4990366;28;20470;-71
2023/07/17 07:33:47;;;;;;;6.07;5.57;;;39.50;1.00;;;;;;4994890;28;20965;-70
2023/07/17 07:36:13;;;;;;;5.90;5.40;;;40.10;1.00;;;;;;4995362;28;20675;-69
2023/07/17 07:38:38;;;;;;;5.87;5.27;;;39.70;1.00;;;;;;4995278;28;20657;-71
2023/07/17 07:41:04;;;;;;;6.73;6.07;;;39.10;1.00;;;;;;4995086;28;20182;-69
2023/07/17 07:43:30;;;;;;;6.33;5.77;;;37.80;1.00;;;;;;4993610;28;20197;-69
2023/07/17 07:45:55;;;;;;;6.20;5.60;;;37.40;1.00;;;;;;4994978;28;20212;-69
2023/07/17 07:48:24;;;;;;;6.07;5.47;;;38.10;1.00;;;;;;4995144;28;20177;-72
2023/07/17 07:50:49;;;;;;;6.40;5.80;;;37.10;1.00;;;;;;4995131;28;20176;-69
2023/07/17 07:53:15;;;;;;;8.80;5.37;;;38.10;1.00;;;;;;4995027;28;20439;-72
2023/07/17 07:55:40;;;;;;;6.37;5.83;;;38.30;1.00;;;;;;4995077;28;20215;-70
2023/07/17 07:58:06;;;;;;;6.07;5.57;;;39.10;1.00;;;;;;4995019;28;20234;-71
2023/07/17 08:00:32;;;;;;;6.00;5.60;;;38.40;1.00;;;;;;4995129;28;20185;-70
2023/07/17 08:02:57;;;;;;;6.00;5.40;;;38.10;1.00;;;;;;4994570;28;20287;-70
2023/07/17 08:05:23;;;;;;;6.17;5.57;;;38.30;1.00;;;;;;4994652;28;20243;-70
2023/07/17 08:07:53;;;;;;;7.77;5.53;;;38.60;1.00;;;;;;4994568;28;20185;-70
2023/07/17 08:10:19;;;;;;;5.67;5.07;;;36.90;1.00;;;;;;4993290;28;20674;-71
2023/07/17 08:12:45;;;;;;;7.07;6.43;;;35.80;1.00;;;;;;5019076;23;20486;-70
2023/07/17 08:15:10;;;;;;;10.50;6.30;;;33.30;1.00;;;;;;5033938;28;20187;-70
2023/07/17 08:17:36;;;;;;;7.97;7.17;;;31.60;1.00;;;;;;5034247;28;20229;-70
2023/07/17 08:20:04;;;;;;;6.23;5.70;;;30.70;1.00;;;;;;5034144;28;20211;-71
2023/07/17 08:22:29;;;;;;;14.13;6.57;;;30.70;1.00;;;;;;5034060;28;20195;-70
2023/07/17 08:24:55;;;;;;;9.30;6.43;;;30.70;1.00;;;;;;5052438;28;20417;-70
2023/07/17 08:27:20;;;;;;;6.10;5.60;;;30.50;1.00;;;;;;5053774;28;20171;-70
2023/07/17 08:29:46;;;;;;;18.93;7.30;;;30.70;1.00;;;;;;5053753;28;20182;-75
2023/07/17 08:32:11;;;;;;;5.50;5.10;;;30.50;1.00;;;;;;5053247;28;20171;-68
2023/07/17 08:34:37;;;;;;;6.43;5.60;;;30.50;1.00;;;;;;5053535;28;20500;-69
2023/07/17 08:37:03;;;;;;;5.80;5.30;;;29.70;1.00;;;;;;5053673;28;20228;-69
2023/07/17 08:39:28;;;;;;;10.60;5.53;;;28.80;1.00;;;;;;5053332;28;20175;-69
2023/07/17 08:41:54;;;;;;;7.47;6.67;;;29.00;1.00;;;;;;5052863;28;20171;-68
2023/07/17 08:44:21;;;;;;;15.47;7.10;;;29.30;1.00;;;;;;5052258;28;20237;-68
2023/07/17 08:46:47;;;;;;;6.00;5.47;;;29.10;1.00;;;;;;5053403;28;20202;-69
2023/07/17 08:49:17;;;;;;;71.00;13.73;;;29.00;1.00;;;;;;5053027;28;20443;-69
2023/07/17 08:51:43;;;;;;;6.27;5.67;;;29.60;1.00;;;;;;5053029;28;20413;-69
2023/07/17 08:54:12;;;;;;;36.90;10.03;;;31.40;1.00;;;;;;5053352;28;20436;-68
2023/07/17 08:56:39;;;;;;;14.83;6.67;;;31.00;1.00;;;;;;5053648;28;20187;-69
2023/07/17 08:59:05;;;;;;;13.10;6.67;;;32.60;1.00;;;;;;5053404;28;20413;-69
2023/07/17 09:01:30;;;;;;;7.13;5.63;;;33.40;1.00;;;;;;5048675;28;20487;-68
2023/07/17 09:03:56;;;;;;;10.57;7.23;;;32.20;1.00;;;;;;5048731;28;20437;-67
2023/07/17 09:06:27;;;;;;;6.77;5.90;;;31.80;1.00;;;;;;5048969;28;20209;-72
2023/07/17 09:08:53;;;;;;;6.60;6.20;;;32.70;1.00;;;;;;5049352;28;20436;-71
2023/07/17 09:11:19;;;;;;;7.57;6.87;;;33.90;1.00;;;;;;5048519;28;20946;-67
2023/07/17 09:13:47;;;;;;;9.50;7.10;;;34.80;1.00;;;;;;5046860;28;20229;-70
2023/07/17 09:16:22;;;;;;;7.20;6.50;;;35.70;1.00;;;;;;5049237;28;20436;-68
2023/07/17 09:18:51;;;;;;;7.20;6.50;;;37.20;1.00;;;;;;5049268;28;20559;-70
2023/07/17 09:21:19;;;;;;;7.03;6.47;;;34.90;1.00;;;;;;5048802;28;20478;-70
2023/07/17 09:23:50;;;;;;;7.03;6.53;;;32.10;1.00;;;;;;5048414;28;20800;-69
2023/07/17 09:26:18;;;;;;;10.60;7.93;;;29.70;1.00;;;;;;5048395;28;20460;-72
2023/07/17 09:28:52;;;;;;;5.87;5.47;;;29.10;1.00;;;;;;5048925;28;20428;-70
2023/07/17 09:31:31;;;;;;;8.80;6.30;;;29.20;1.00;;;;;;5048608;28;20475;-68
2023/07/17 09:34:04;;;;;;;5.80;5.20;;;29.30;1.00;;;;;;5048636;28;20438;-67
2023/07/17 09:36:29;;;;;;;6.80;6.30;;;28.90;1.00;;;;;;5048980;28;20712;-67
2023/07/17 09:38:57;;;;;;;7.03;6.43;;;27.90;1.00;;;;;;5050961;28;20460;-68
2023/07/17 09:41:29;;;;;;;7.20;6.50;;;27.60;1.00;;;;;;5050599;28;20174;-68
2023/07/17 09:44:03;;;;;;;5.70;5.30;;;27.80;1.00;;;;;;5051927;28;20817;-67
2023/07/17 09:46:30;;;;;;;6.10;5.60;;;27.80;1.00;;;;;;5051600;28;20974;-67
2023/07/17 09:48:59;;;;;;;7.77;7.00;;;27.70;1.00;;;;;;5051679;28;20516;-67
2023/07/17 09:51:25;;;;;;;7.27;6.67;;;27.60;1.00;;;;;;5050436;28;20409;-69
2023/07/17 09:53:51;;;;;;;7.77;7.03;;;27.40;1.00;;;;;;5051776;28;20421;-68
2023/07/17 09:56:19;;;;;;;10.37;6.93;;;27.30;1.00;;;;;;5052173;28;20408;-68
2023/07/17 09:58:53;;;;;;;6.40;5.90;;;27.50;1.00;;;;;;5050845;28;20425;-69
2023/07/17 10:01:20;;;;;;;7.03;6.47;;;27.60;1.00;;;;;;5051986;28;20467;-69
2023/07/17 10:03:50;;;;;;;5.60;5.10;;;27.70;1.00;;;;;;5051353;28;20433;-67
2023/07/17 10:06:20;;;;;;;7.20;6.60;;;27.30;1.00;;;;;;5051378;28;20518;-68
2023/07/17 10:08:50;;;;;;;9.03;6.53;;;27.70;1.00;;;;;;5051853;28;20409;-68
2023/07/17 10:11:19;;;;;;;9.63;6.90;;;27.50;1.00;;;;;;5051490;28;20423;-68
2023/07/17 10:13:47;;;;;;;7.40;6.80;;;27.20;1.00;;;;;;5051320;28;20452;-69
2023/07/17 10:16:15;;;;;;;6.80;6.27;;;27.10;1.00;;;;;;5051620;28;20421;-69
2023/07/17 10:18:58;;;;;;;6.83;6.13;;;27.10;1.00;;;;;;5049896;28;20508;-68
2023/07/17 10:21:23;;;;;;;6.87;6.23;;;27.20;1.00;;;;;;5051463;28;20482;-68
2023/07/17 10:23:50;;;;;;;7.53;6.83;;;27.20;1.00;;;;;;5050937;28;20429;-69
2023/07/17 10:26:19;;;;;;;6.47;5.97;;;27.20;1.00;;;;;;5051767;28;20259;-68
2023/07/17 10:28:50;;;;;;;7.30;6.70;;;26.90;1.00;;;;;;5051203;28;20491;-68
2023/07/17 10:31:19;;;;;;;7.03;6.33;;;27.00;1.00;;;;;;5051483;28;20451;-69
2023/07/17 10:34:01;;;;;;;5.87;5.37;;;27.40;1.00;;;;;;5051088;28;20481;-68
2023/07/17 10:36:56;;;;;;;7.10;6.50;;;27.70;1.00;;;;;;5051583;28;20466;-68
2023/07/17 10:39:28;;;;;;;7.57;6.97;;;27.90;1.00;;;;;;5046444;28;20430;-70
2023/07/17 10:41:54;;;;;;;6.60;5.83;;;27.90;1.00;;;;;;5049697;28;20500;-68
2023/07/17 10:44:21;;;;;;;6.90;6.10;;;27.80;1.00;;;;;;5051479;28;21010;-68
2023/07/17 10:46:47;;;;;;;6.60;6.13;;;27.80;1.00;;;;;;5051487;28;20214;-69
2023/07/17 10:49:15;;;;;;;7.53;6.40;;;27.60;1.00;;;;;;5051562;28;20845;-68
2023/07/17 10:51:46;;;;;;;5.87;5.47;;;27.60;1.00;;;;;;5051245;28;20497;-68
2023/07/17 10:54:13;;;;;;;6.00;5.40;;;27.70;1.00;;;;;;5051460;28;20439;-70
2023/07/17 10:56:40;;;;;;;7.33;5.90;;;27.90;1.00;;;;;;5051286;28;20413;-68
2023/07/17 10:59:06;;;;;;;8.03;7.20;;;28.10;1.00;;;;;;5051121;28;20656;-69
2023/07/17 11:01:32;;;;;;;11.27;7.10;;;28.80;1.00;;;;;;5050999;28;20508;-68
2023/07/17 11:04:01;;;;;;;8.30;6.60;;;28.70;1.00;;;;;;5050962;28;20198;-69
2023/07/17 11:06:27;;;;;;;5.53;5.13;;;28.70;1.00;;;;;;5051523;28;20664;-69
2023/07/17 11:08:57;;;;;;;16.47;8.80;;;28.40;1.00;;;;;;5055541;28;20409;-69
2023/07/17 11:11:23;;;;;;;7.20;6.60;;;28.30;1.00;;;;;;5054127;28;20763;-69
2023/07/17 11:13:50;;;;;;;22.00;7.83;;;28.60;1.00;;;;;;5055150;28;20441;-69
2023/07/17 11:16:16;;;;;;;6.33;5.73;;;28.80;1.00;;;;;;5055578;28;20423;-69
2023/07/17 11:18:50;;;;;;;7.77;6.20;;;28.70;1.00;;;;;;5055385;28;20433;-69
2023/07/17 11:21:18;;;;;;;13.13;7.00;;;28.60;1.00;;;;;;5055621;28;20442;-69
2023/07/17 11:24:06;;;;;;;6.17;5.70;;;28.80;1.00;;;;;;5055249;28;20436;-69
2023/07/17 11:26:32;;;;;;;6.47;6.00;;;29.10;1.00;;;;;;5054982;28;20981;-70
2023/07/17 11:29:00;;;;;;;5.93;5.43;;;29.30;1.00;;;;;;5055271;28;20412;-70
2023/07/17 11:31:34;;;;;;;7.83;6.60;;;29.60;1.00;;;;;;5054910;28;20413;-68
2023/07/17 11:34:04;;;;;;;7.03;6.33;;;29.40;1.00;;;;;;5055032;28;21057;-69
2023/07/17 11:36:44;;;;;;;6.53;5.93;;;29.40;1.00;;;;;;5054749;28;20419;-69
2023/07/17 11:39:15;;;;;;;7.60;7.00;;;29.20;1.00;;;;;;5054600;28;20413;-69
2023/07/17 11:41:51;;;;;;;6.60;6.00;;;28.90;1.00;;;;;;5054622;28;20420;-68
2023/07/17 11:44:33;;;;;;;9.53;7.70;;;28.30;1.00;;;;;;5056104;28;20560;-71
2023/07/17 11:47:04;;;;;;;9.07;7.70;;;28.30;1.00;;;;;;5054459;28;20452;-69
2023/07/17 11:49:34;;;;;;;6.33;5.90;;;28.50;1.00;;;;;;5054350;28;20416;-69
2023/07/17 11:52:00;;;;;;;7.20;6.50;;;28.70;1.00;;;;;;5053994;28;20405;-69
2023/07/17 11:54:38;;;;;;;6.33;5.83;;;28.50;1.00;;;;;;5054375;28;20554;-68
2023/07/17 11:57:04;;;;;;;9.47;6.83;;;28.40;1.00;;;;;;5053101;28;20502;-68
2023/07/17 11:59:30;;;;;;;6.53;5.90;;;28.20;1.00;;;;;;5054191;28;20425;-69
2023/07/17 12:01:56;;;;;;;9.50;6.57;;;28.50;1.00;;;;;;5052674;28;20421;-69
2023/07/17 12:04:24;;;;;;;6.93;6.37;;;29.00;1.00;;;;;;5054486;28;20194;-68
2023/07/17 12:06:50;;;;;;;6.10;5.60;;;29.60;1.00;;;;;;5053947;28;20278;-69
2023/07/17 12:09:17;;;;;;;8.77;5.40;;;29.30;1.00;;;;;;5054339;28;20416;-68
2023/07/17 12:11:44;;;;;;;6.10;5.60;;;29.50;1.00;;;;;;5054069;28;20422;-69
2023/07/17 12:14:10;;;;;;;7.03;6.40;;;29.60;1.00;;;;;;5054128;28;20495;-69
2023/07/17 12:16:35;;;;;;;7.50;6.70;;;29.40;1.00;;;;;;5053298;28;20468;-68
2023/07/17 12:19:03;;;;;;;6.23;5.70;;;29.70;1.00;;;;;;5053755;28;20420;-69
2023/07/17 12:21:32;;;;;;;7.77;6.50;;;30.00;1.00;;;;;;5054682;28;20641;-69
2023/07/17 12:23:58;;;;;;;6.83;6.20;;;30.10;1.00;;;;;;5055060;28;20505;-69
2023/07/17 12:26:23;;;;;;;7.50;6.80;;;30.50;1.00;;;;;;5054542;28;20811;-69
2023/07/17 12:28:49;;;;;;;7.00;6.40;;;30.60;1.00;;;;;;5052832;28;20532;-68
2023/07/17 12:31:15;;;;;;;6.80;6.30;;;30.50;1.00;;;;;;5054745;28;20655;-68
2023/07/17 12:33:41;;;;;;;6.03;5.53;;;30.50;1.00;;;;;;5056011;28;20186;-69
2023/07/17 12:36:07;;;;;;;6.63;6.03;;;30.20;1.00;;;;;;5055487;28;20413;-70
2023/07/17 12:38:32;;;;;;;6.07;5.57;;;29.80;1.00;;;;;;5055040;28;20484;-70
2023/07/17 12:40:59;;;;;;;6.87;6.37;;;30.30;1.00;;;;;;5055239;28;20178;-70
2023/07/17 12:43:24;;;;;;;7.13;6.63;;;30.30;1.00;;;;;;5052480;28;20459;-70
2023/07/17 12:45:50;;;;;;;6.53;6.03;;;30.50;1.00;;;;;;5054228;28;20969;-70
2023/07/17 12:48:15;;;;;;;7.70;7.00;;;30.60;1.00;;;;;;5054453;28;20293;-69
2023/07/17 12:50:41;;;;;;;7.63;6.97;;;30.00;1.00;;;;;;5054194;28;20182;-69